createdAt,value
2019-02-11T00:02:25.691Z,4.30
2019-02-11T00:05:07.659Z,4.30
2019-02-11T00:07:49.380Z,4.10
2019-02-11T00:10:31.445Z,4.10
2019-02-11T00:13:13.306Z,4.10
2019-02-11T00:15:55.642Z,4.10
2019-02-11T00:18:37.524Z,4.00
2019-02-11T00:21:19.950Z,4.20
2019-02-11T00:24:02.171Z,4.20
2019-02-11T00:26:44.667Z,4.20
2019-02-11T00:29:26.724Z,4.20
2019-02-11T00:32:08.859Z,4.20
2019-02-11T00:34:50.827Z,4.10
2019-02-11T00:37:34.191Z,4.00
2019-02-11T00:40:16.407Z,3.90
2019-02-11T00:42:58.782Z,3.90
2019-02-11T00:45:40.994Z,4.00
2019-02-11T00:48:23.079Z,4.00
2019-02-11T00:51:05.193Z,4.10
2019-02-11T00:53:47.877Z,4.10
2019-02-11T00:56:30.063Z,4.10
2019-02-11T00:59:12.208Z,4.10
2019-02-11T01:01:54.348Z,4.00
2019-02-11T01:04:36.502Z,4.00
2019-02-11T01:07:18.827Z,4.10
2019-02-11T01:10:01.403Z,4.10
2019-02-11T01:12:43.674Z,4.10
2019-02-11T01:15:25.922Z,4.10
2019-02-11T01:18:08.107Z,4.20
2019-02-11T01:20:50.411Z,4.20
2019-02-11T01:23:32.559Z,4.30
2019-02-11T01:26:14.749Z,4.30
2019-02-11T01:28:56.891Z,4.40
2019-02-11T01:31:39.451Z,4.40
2019-02-11T01:34:21.610Z,4.40
2019-02-11T01:37:03.923Z,4.40
2019-02-11T01:39:46.098Z,4.50
2019-02-11T01:42:28.402Z,4.50
2019-02-11T01:45:10.632Z,4.50
2019-02-11T01:47:52.764Z,4.40
2019-02-11T01:50:35.105Z,4.30
2019-02-11T01:53:17.716Z,4.30
2019-02-11T01:56:00.407Z,4.30
2019-02-11T01:58:42.699Z,4.30
2019-02-11T02:01:24.731Z,4.30
2019-02-11T02:04:07.322Z,4.20
2019-02-11T02:06:49.292Z,4.20
2019-02-11T02:09:31.359Z,4.10
2019-02-11T02:12:13.439Z,4.20
2019-02-11T02:14:55.519Z,4.10
2019-02-11T02:17:25.833Z,4.10
2019-02-11T02:20:15.326Z,4.20
2019-02-11T02:22:56.935Z,4.20
2019-02-11T02:25:39.094Z,4.20
2019-02-11T02:28:21.086Z,4.20
2019-02-11T02:31:03.158Z,4.20
2019-02-11T02:33:44.847Z,4.30
2019-02-11T02:36:26.671Z,4.30
2019-02-11T02:39:08.710Z,4.40
2019-02-11T02:41:50.680Z,4.40
2019-02-11T02:47:54.856Z,4.60
2019-02-11T02:50:36.580Z,4.60
2019-02-11T02:53:19.084Z,4.70
2019-02-11T02:56:00.904Z,4.70
2019-02-11T02:58:42.927Z,4.70
2019-02-11T03:01:25.007Z,4.70
2019-02-11T03:04:07.227Z,4.60
2019-02-11T03:06:48.798Z,4.60
2019-02-11T03:09:31.039Z,4.60
2019-02-11T03:12:12.781Z,4.50
2019-02-11T03:14:55.247Z,4.50
2019-02-11T03:17:37.221Z,4.50
2019-02-11T03:20:19.528Z,4.60
2019-02-11T03:23:01.043Z,4.60
2019-02-11T03:25:44.063Z,4.40
2019-02-11T03:28:26.306Z,4.60
2019-02-11T03:31:08.840Z,4.60
2019-02-11T03:33:50.805Z,4.60
2019-02-11T03:36:33.114Z,4.60
2019-02-11T03:39:15.036Z,4.70
2019-02-11T03:41:57.701Z,4.70
2019-02-11T03:44:39.938Z,4.70
2019-02-11T03:47:22.299Z,4.60
2019-02-11T03:50:04.425Z,4.50
2019-02-11T03:52:46.552Z,4.50
2019-02-11T03:55:28.765Z,4.30
2019-02-11T03:58:10.337Z,4.20
2019-02-11T04:00:52.335Z,4.20
2019-02-11T04:03:34.742Z,4.20
2019-02-11T04:06:16.875Z,4.10
2019-02-11T04:08:59.257Z,4.10
2019-02-11T04:11:41.087Z,4.10
2019-02-11T04:14:25.142Z,4.20
2019-02-11T04:17:07.048Z,4.20
2019-02-11T04:19:49.500Z,4.20
2019-02-11T04:22:31.551Z,4.30
2019-02-11T04:25:13.673Z,4.30
2019-02-11T04:27:55.511Z,4.30
2019-02-11T04:30:37.703Z,4.30
2019-02-11T04:33:19.541Z,4.30
2019-02-11T04:36:01.770Z,4.10
2019-02-11T04:38:43.562Z,4.10
2019-02-11T04:41:25.403Z,4.10
2019-02-11T04:44:07.400Z,4.00
2019-02-11T04:46:49.216Z,4.00
2019-02-11T04:49:31.431Z,4.10
2019-02-11T04:52:13.703Z,4.10
2019-02-11T04:54:55.767Z,4.00
2019-02-11T05:00:37.548Z,4.10
2019-02-11T05:03:19.971Z,4.30
2019-02-11T05:06:02.379Z,4.30
2019-02-11T05:08:44.065Z,4.40
2019-02-11T05:11:26.375Z,4.50
2019-02-11T05:14:08.680Z,4.50
2019-02-11T05:16:51.053Z,4.50
2019-02-11T05:19:33.255Z,4.50
2019-02-11T05:22:15.367Z,4.50
2019-02-11T05:24:57.771Z,4.60
2019-02-11T05:27:40.017Z,4.60
2019-02-11T05:30:22.002Z,4.60
2019-02-11T05:33:05.365Z,4.30
2019-02-11T05:35:47.523Z,4.40
2019-02-11T05:38:29.916Z,4.40
2019-02-11T05:41:12.851Z,4.30
2019-02-11T05:43:54.883Z,4.20
2019-02-11T05:46:37.336Z,4.20
2019-02-11T05:49:19.746Z,4.20
2019-02-11T05:52:02.199Z,4.20
2019-02-11T05:54:44.527Z,4.00
2019-02-11T05:57:26.375Z,4.00
2019-02-11T06:00:08.947Z,4.00
2019-02-11T06:02:50.671Z,4.00
2019-02-11T06:05:33.274Z,3.90
2019-02-11T06:08:15.303Z,3.90
2019-02-11T06:10:57.704Z,3.90
2019-02-11T06:16:19.536Z,3.80
2019-02-11T06:19:01.876Z,3.80
2019-02-11T06:21:44.131Z,3.80
2019-02-11T06:24:26.195Z,3.70
2019-02-11T06:27:08.499Z,3.70
2019-02-11T06:29:50.578Z,3.70
2019-02-11T06:32:32.919Z,3.70
2019-02-11T06:35:15.019Z,3.70
2019-02-11T06:37:56.872Z,3.60
2019-02-11T06:40:39.063Z,3.60
2019-02-11T06:43:21.347Z,3.60
2019-02-11T06:46:03.386Z,3.60
2019-02-11T06:48:45.659Z,3.60
2019-02-11T06:51:27.827Z,3.60
2019-02-11T06:54:09.631Z,3.50
2019-02-11T06:56:51.159Z,3.50
2019-02-11T06:59:33.519Z,3.50
2019-02-11T07:02:15.575Z,3.40
2019-02-11T07:04:58.206Z,3.50
2019-02-11T07:07:40.351Z,3.50
2019-02-11T07:10:22.399Z,3.50
2019-02-11T07:13:04.662Z,3.50
2019-02-11T07:15:46.526Z,3.40
2019-02-11T07:18:28.635Z,3.40
2019-02-11T07:21:11.010Z,3.50
2019-02-11T07:23:41.314Z,3.40
2019-02-11T07:26:23.365Z,3.40
2019-02-11T07:29:05.239Z,3.40
2019-02-11T07:31:47.320Z,3.40
2019-02-11T07:34:29.708Z,3.40
2019-02-11T07:37:11.819Z,3.40
2019-02-11T07:39:54.243Z,3.40
2019-02-11T07:42:55.267Z,3.30
2019-02-11T07:48:40.335Z,3.40
2019-02-11T07:51:22.479Z,3.40
2019-02-11T07:54:04.759Z,3.40
2019-02-11T07:56:46.962Z,3.40
2019-02-11T07:59:28.955Z,3.40
2019-02-11T08:02:10.647Z,3.40
2019-02-11T08:04:53.052Z,3.30
2019-02-11T08:07:34.839Z,3.20
2019-02-11T08:10:17.009Z,3.10
2019-02-11T08:12:58.855Z,3.10
2019-02-11T08:15:41.117Z,3.10
2019-02-11T08:18:23.094Z,3.10
2019-02-11T08:21:05.475Z,3.20
2019-02-11T08:23:47.244Z,3.40
2019-02-11T08:26:29.664Z,3.50
2019-02-11T08:29:11.951Z,3.50
2019-02-11T08:31:54.349Z,3.60
2019-02-11T08:34:36.356Z,3.50
2019-02-11T08:37:18.124Z,3.40
2019-02-11T08:39:48.532Z,3.30
2019-02-11T08:42:30.948Z,3.30
2019-02-11T08:45:12.595Z,3.30
2019-02-11T08:47:54.898Z,3.30
2019-02-11T08:50:36.607Z,3.30
2019-02-11T08:53:19.097Z,3.30
2019-02-11T08:56:03.333Z,3.30
2019-02-11T08:58:33.652Z,3.40
2019-02-11T09:01:15.275Z,3.40
2019-02-11T09:03:45.738Z,3.50
2019-02-11T09:06:28.203Z,3.60
2019-02-11T09:09:10.604Z,3.50
2019-02-11T09:11:52.735Z,3.50
2019-02-11T09:14:34.910Z,3.50
2019-02-11T09:17:17.168Z,3.40
2019-02-11T09:19:47.907Z,3.30
2019-02-11T09:28:06.419Z,3.20
2019-02-11T09:30:48.440Z,3.10
2019-02-11T09:33:18.860Z,3.00
2019-02-11T09:36:08.184Z,3.10
2019-02-11T09:38:50.937Z,3.30
2019-02-11T09:41:32.600Z,3.50
2019-02-11T09:44:14.696Z,3.60
2019-02-11T09:46:56.919Z,3.80
2019-02-11T09:49:39.047Z,3.80
2019-02-11T09:52:21.159Z,3.80
2019-02-11T09:55:04.996Z,3.80
2019-02-11T09:57:47.243Z,3.70
2019-02-11T10:00:29.366Z,3.60
2019-02-11T10:02:59.912Z,3.50
2019-02-11T10:05:42.302Z,3.60
2019-02-11T10:08:24.763Z,3.60
2019-02-11T10:11:05.678Z,3.70
2019-02-11T10:13:48.247Z,3.70
2019-02-11T10:16:30.619Z,3.90
2019-02-11T10:19:12.755Z,3.80
2019-02-11T10:21:55.295Z,3.90
2019-02-11T10:24:37.280Z,3.90
2019-02-11T10:27:19.699Z,4.00
2019-02-11T10:30:01.205Z,4.00
2019-02-11T10:32:45.039Z,4.10
2019-02-11T10:35:26.735Z,4.20
2019-02-11T10:38:08.972Z,4.30
2019-02-11T10:40:50.862Z,4.30
2019-02-11T10:43:33.543Z,4.30
2019-02-11T10:46:20.836Z,4.30
2019-02-11T10:49:00.898Z,4.40
2019-02-11T10:54:41.713Z,4.40
2019-02-11T10:57:24.020Z,4.50
2019-02-11T11:00:06.507Z,4.50
2019-02-11T11:02:48.916Z,4.60
2019-02-11T11:05:30.963Z,4.60
2019-02-11T11:08:01.298Z,4.60
2019-02-11T11:10:50.999Z,4.60
2019-02-11T11:13:33.143Z,4.70
2019-02-11T11:16:15.962Z,4.70
2019-02-11T11:18:57.601Z,4.70
2019-02-11T11:21:40.062Z,4.80
2019-02-11T11:24:21.735Z,4.80
2019-02-11T11:27:04.116Z,4.80
2019-02-11T11:29:46.012Z,4.80
2019-02-11T11:32:16.636Z,4.80
2019-02-11T11:34:58.644Z,4.90
2019-02-11T11:37:41.399Z,4.90
2019-02-11T11:40:23.555Z,4.90
2019-02-11T11:43:05.935Z,4.90
2019-02-11T11:45:47.976Z,5.00
2019-02-11T11:48:30.459Z,5.00
2019-02-11T11:51:12.895Z,5.10
2019-02-11T11:53:54.739Z,5.10
2019-02-11T11:56:36.695Z,5.20
2019-02-11T11:59:18.854Z,5.10
2019-02-11T12:02:00.983Z,5.20
2019-02-11T12:04:42.768Z,5.20
2019-02-11T12:07:24.830Z,5.20
2019-02-11T12:10:06.834Z,5.30
2019-02-11T12:12:48.416Z,5.70
2019-02-11T12:15:30.324Z,10.20
2019-02-11T12:18:12.445Z,12.70
2019-02-11T12:20:55.149Z,15.60
2019-02-11T12:23:37.593Z,17.10
2019-02-11T12:26:21.471Z,16.70
2019-02-11T12:29:03.396Z,14.80
2019-02-11T12:34:26.380Z,20.00
2019-02-11T12:36:57.154Z,18.70
2019-02-11T12:39:39.544Z,19.70
2019-02-11T12:42:21.619Z,20.40
2019-02-11T12:45:03.481Z,20.60
2019-02-11T12:47:46.094Z,23.40
2019-02-11T12:50:28.357Z,19.20
2019-02-11T12:53:10.991Z,20.00
2019-02-11T12:55:53.099Z,18.30
2019-02-11T12:58:35.409Z,18.60
2019-02-11T13:01:17.240Z,18.00
2019-02-11T13:03:59.427Z,15.20
2019-02-11T13:06:40.948Z,14.90
2019-02-11T13:09:23.248Z,14.90
2019-02-11T13:12:05.220Z,15.10
2019-02-11T13:14:47.629Z,14.50
2019-02-11T13:17:33.779Z,15.50
2019-02-11T13:20:13.836Z,15.70
2019-02-11T13:22:57.103Z,15.90
2019-02-11T13:25:41.072Z,16.40
2019-02-11T13:28:22.975Z,15.50
2019-02-11T13:31:05.487Z,14.80
2019-02-11T13:33:47.738Z,11.90
2019-02-11T13:36:30.061Z,10.50
2019-02-11T13:39:11.732Z,10.90
2019-02-11T13:41:42.726Z,10.00
2019-02-11T13:44:32.193Z,9.70
2019-02-11T13:47:14.743Z,8.80
2019-02-11T13:49:57.397Z,7.70
2019-02-11T13:52:39.389Z,7.00
2019-02-11T13:55:21.302Z,6.40
2019-02-11T13:58:03.737Z,5.80
2019-02-11T14:00:49.682Z,5.40
2019-02-11T14:03:29.466Z,5.00
2019-02-11T14:06:11.398Z,4.70
2019-02-11T14:08:53.455Z,4.40
2019-02-11T14:11:35.083Z,4.30
2019-02-11T14:14:17.270Z,4.10
2019-02-11T14:16:59.801Z,4.00
2019-02-11T14:19:41.799Z,3.90
2019-02-11T14:22:23.924Z,3.90
2019-02-11T14:25:06.311Z,3.80
2019-02-11T14:27:48.535Z,3.70
2019-02-11T14:30:19.919Z,3.70
2019-02-11T14:33:03.447Z,3.60
2019-02-11T14:35:45.471Z,3.50
2019-02-11T14:38:27.349Z,3.50
2019-02-11T14:41:09.343Z,3.40
2019-02-11T14:43:51.397Z,3.40
2019-02-11T14:46:33.649Z,3.30
2019-02-11T14:49:15.514Z,3.30
2019-02-11T14:51:58.040Z,3.20
2019-02-11T14:54:28.576Z,3.10
2019-02-11T14:57:17.982Z,3.10
2019-02-11T14:59:59.939Z,3.00
2019-02-11T15:02:42.332Z,3.00
2019-02-11T15:05:24.792Z,3.00
2019-02-11T15:08:05.355Z,3.00
2019-02-11T15:13:46.181Z,3.10
2019-02-11T15:16:27.948Z,3.10
2019-02-11T15:19:10.372Z,2.90
2019-02-11T15:21:52.548Z,2.90
2019-02-11T15:24:34.899Z,2.80
2019-02-11T15:27:17.573Z,2.80
2019-02-11T15:29:59.539Z,2.80
2019-02-11T15:32:41.522Z,2.70
2019-02-11T15:35:12.143Z,2.60
2019-02-11T15:38:01.668Z,2.50
2019-02-11T15:40:44.187Z,2.50
2019-02-11T15:43:26.239Z,2.50
2019-02-11T15:46:08.712Z,2.50
2019-02-11T15:48:50.779Z,2.40
2019-02-11T15:51:33.560Z,2.40
2019-02-11T15:54:15.819Z,2.20
2019-02-11T15:56:58.139Z,2.20
2019-02-11T16:05:02.786Z,2.00
2019-02-11T16:07:45.670Z,1.90
2019-02-11T16:10:27.800Z,1.80
2019-02-11T16:13:10.496Z,1.70
2019-02-11T16:15:52.066Z,1.60
2019-02-11T16:18:34.272Z,1.70
2019-02-11T16:21:04.611Z,1.70
2019-02-11T16:23:54.067Z,1.70
2019-02-11T16:26:36.047Z,1.60
2019-02-11T16:29:18.063Z,1.40
2019-02-11T16:32:00.987Z,1.30
2019-02-11T16:34:42.895Z,1.20
2019-02-11T16:37:13.246Z,1.20
2019-02-11T16:40:02.979Z,1.20
2019-02-11T16:42:45.215Z,1.20
2019-02-11T16:45:15.879Z,1.40
2019-02-11T16:47:58.343Z,1.40
2019-02-11T16:50:40.267Z,1.50
2019-02-11T16:53:22.103Z,1.20
2019-02-11T16:56:04.696Z,1.20
2019-02-11T16:58:47.283Z,1.30
2019-02-11T17:01:29.877Z,1.10
2019-02-11T17:04:00.168Z,1.10
2019-02-11T17:06:49.719Z,1.20
2019-02-11T17:09:31.835Z,1.40
2019-02-11T17:12:02.447Z,1.40
2019-02-11T17:14:43.987Z,1.40
2019-02-11T17:17:26.542Z,1.30
2019-02-11T17:20:09.136Z,1.20
2019-02-11T17:22:51.284Z,1.20
2019-02-11T17:25:33.339Z,1.00
2019-02-11T17:36:04.223Z,0.40
2019-02-11T17:38:46.464Z,0.40
2019-02-11T17:41:28.868Z,0.40
2019-02-11T17:44:11.268Z,0.30
2019-02-11T17:46:53.419Z,0.30
2019-02-11T17:49:23.888Z,0.20
2019-02-11T17:52:10.666Z,0.20
2019-02-11T17:54:52.783Z,0.10
2019-02-11T17:57:34.967Z,0.20
2019-02-11T18:00:23.911Z,0.30
2019-02-11T18:03:05.891Z,0.40
2019-02-11T18:05:48.148Z,0.40
2019-02-11T18:08:30.153Z,0.40
2019-02-11T18:11:12.752Z,0.40
2019-02-11T18:13:54.907Z,0.40
2019-02-11T18:16:37.552Z,0.40
2019-02-11T18:19:26.052Z,0.40
2019-02-11T18:22:03.769Z,0.30
2019-02-11T18:24:45.986Z,0.60
2019-02-11T18:27:28.547Z,0.50
2019-02-11T18:30:10.523Z,0.40
2019-02-11T18:32:52.827Z,0.40
2019-02-11T18:35:33.295Z,0.60
2019-02-11T18:38:15.431Z,0.40
2019-02-11T18:40:57.609Z,0.60
2019-02-11T18:43:39.947Z,0.50
2019-02-11T18:46:22.079Z,0.70
2019-02-11T18:49:04.372Z,0.60
2019-02-11T18:51:46.539Z,0.80
2019-02-11T18:54:28.688Z,0.80
2019-02-11T18:57:10.637Z,0.90
2019-02-11T18:59:53.151Z,0.90
2019-02-11T19:02:35.235Z,0.90
2019-02-11T19:05:18.967Z,1.00
2019-02-11T19:08:01.120Z,1.00
2019-02-11T19:10:42.795Z,1.10
2019-02-11T19:13:25.914Z,1.10
2019-02-11T19:16:08.136Z,1.10
2019-02-11T19:18:50.479Z,1.20
2019-02-11T19:26:54.764Z,1.20
2019-02-11T19:29:36.991Z,1.10
2019-02-11T19:32:19.235Z,1.10
2019-02-11T19:35:01.486Z,1.10
2019-02-11T19:37:43.847Z,1.10
2019-02-11T19:40:25.447Z,1.00
2019-02-11T19:43:07.731Z,1.10
2019-02-11T19:45:49.883Z,1.10
2019-02-11T19:48:20.375Z,1.10
2019-02-11T19:51:02.688Z,1.20
2019-02-11T19:53:44.920Z,1.20
2019-02-11T19:56:27.311Z,1.10
2019-02-11T19:59:09.291Z,1.40
2019-02-11T20:01:51.279Z,1.50
2019-02-11T20:04:33.347Z,1.20
2019-02-11T20:07:15.434Z,1.10
2019-02-11T20:09:57.903Z,1.10
2019-02-11T20:12:39.423Z,1.20
2019-02-11T20:15:21.594Z,1.70
2019-02-11T20:18:03.514Z,1.50
2019-02-11T20:20:45.717Z,1.70
2019-02-11T20:23:27.769Z,1.60
2019-02-11T20:26:08.608Z,1.60
2019-02-11T20:28:50.476Z,1.60
2019-02-11T20:31:32.667Z,1.70
2019-02-11T20:34:14.799Z,2.00
2019-02-11T20:36:56.811Z,2.00
2019-02-11T20:39:39.051Z,2.00
2019-02-11T20:42:21.299Z,2.00
2019-02-11T20:45:03.659Z,2.00
2019-02-11T20:47:46.048Z,2.00
2019-02-11T20:50:27.894Z,2.00
2019-02-11T20:53:10.023Z,2.00
2019-02-11T20:55:51.947Z,2.10
2019-02-11T21:01:14.596Z,1.90
2019-02-11T21:03:57.016Z,1.80
2019-02-11T21:06:38.902Z,1.90
2019-02-11T21:09:21.328Z,1.80
2019-02-11T21:12:03.631Z,1.80
2019-02-11T21:14:45.679Z,1.70
2019-02-11T21:17:28.179Z,1.70
2019-02-11T21:20:17.346Z,1.70
2019-02-11T21:22:53.976Z,1.70
2019-02-11T21:25:36.212Z,1.70
2019-02-11T21:28:17.924Z,2.10
2019-02-11T21:31:00.288Z,2.00
2019-02-11T21:33:42.139Z,1.80
2019-02-11T21:36:24.643Z,1.80
2019-02-11T21:38:54.967Z,1.90
2019-02-11T21:41:44.647Z,1.90
2019-02-11T21:44:26.971Z,1.90
2019-02-11T21:47:09.241Z,1.70
2019-02-11T21:49:50.843Z,1.70
2019-02-11T21:52:32.569Z,1.70
2019-02-11T21:55:14.646Z,1.80
2019-02-11T21:57:56.859Z,1.80
2019-02-11T22:00:27.179Z,1.60
2019-02-11T22:03:16.845Z,1.70
2019-02-11T22:05:58.562Z,1.80
2019-02-11T22:08:40.955Z,1.60
2019-02-11T22:11:23.023Z,1.50
2019-02-11T22:13:53.394Z,1.90
2019-02-11T22:21:56.192Z,1.30
2019-02-11T22:27:20.235Z,1.70
2019-02-11T22:30:02.526Z,1.60
2019-02-11T22:32:45.000Z,1.50
2019-02-11T22:35:26.970Z,1.60
2019-02-11T22:38:08.619Z,1.70
2019-02-11T22:40:51.158Z,1.70
2019-02-11T22:43:33.434Z,1.60
2019-02-11T22:46:15.311Z,1.60
2019-02-11T22:48:57.407Z,1.50
2019-02-11T22:51:39.567Z,1.80
2019-02-11T22:54:21.742Z,1.60
2019-02-11T22:57:03.864Z,1.60
2019-02-11T22:59:46.559Z,1.60
2019-02-11T23:02:28.358Z,1.50
2019-02-11T23:05:10.743Z,1.40
2019-02-11T23:07:53.163Z,1.20
2019-02-11T23:10:35.207Z,1.50
2019-02-11T23:13:17.357Z,1.30
2019-02-11T23:15:59.431Z,1.30
2019-02-11T23:18:41.575Z,1.30
2019-02-11T23:21:23.809Z,1.30
2019-02-11T23:24:05.875Z,1.40
2019-02-11T23:26:47.911Z,1.40
2019-02-11T23:29:29.891Z,1.40
2019-02-11T23:32:12.175Z,1.40
2019-02-11T23:34:54.259Z,1.50
2019-02-11T23:37:36.491Z,1.40
2019-02-11T23:40:18.819Z,1.40
2019-02-11T23:43:01.111Z,1.30
2019-02-11T23:45:43.155Z,1.20
2019-02-11T23:48:25.951Z,1.10
2019-02-11T23:51:07.931Z,1.00
2019-02-11T23:53:50.344Z,1.10
2019-02-11T23:56:32.423Z,0.90
2019-02-11T23:59:14.455Z,0.90
